createdAt,value
2019-02-20T00:00:27.646Z,57.48
2019-02-20T00:00:58.976Z,65.37
2019-02-20T00:01:30.265Z,72.78
2019-02-20T00:02:01.571Z,63.98
2019-02-20T00:02:32.861Z,66.17
2019-02-20T00:03:04.173Z,57.98
2019-02-20T00:03:35.496Z,60.03
2019-02-20T00:04:06.702Z,62.67
2019-02-20T00:04:37.995Z,66.95
2019-02-20T00:05:09.360Z,62.48
2019-02-20T00:05:40.668Z,60.90
2019-02-20T00:06:11.950Z,61.75
2019-02-20T00:06:43.243Z,64.55
2019-02-20T00:07:14.539Z,66.70
2019-02-20T00:07:45.830Z,58.48
2019-02-20T00:08:17.103Z,63.75
2019-02-20T00:08:48.421Z,71.65
2019-02-20T00:09:19.719Z,67.90
2019-02-20T00:09:51.017Z,67.53
2019-02-20T00:10:22.362Z,73.47
2019-02-20T00:10:53.645Z,73.28
2019-02-20T00:11:24.944Z,71.72
2019-02-20T00:11:56.230Z,75.37
2019-02-20T00:12:27.524Z,67.80
2019-02-20T00:12:58.835Z,73.78
2019-02-20T00:13:30.134Z,66.40
2019-02-20T00:14:01.454Z,71.02
2019-02-20T00:14:32.756Z,75.47
2019-02-20T00:15:04.095Z,69.85
2019-02-20T00:15:35.409Z,71.82
2019-02-20T00:16:06.763Z,69.97
2019-02-20T00:16:38.034Z,74.07
2019-02-20T00:17:09.353Z,70.70
2019-02-20T00:17:40.650Z,72.80
2019-02-20T00:18:11.946Z,69.87
2019-02-20T00:18:43.247Z,73.07
2019-02-20T00:19:14.541Z,71.97
2019-02-20T00:19:45.879Z,73.83
2019-02-20T00:20:17.176Z,70.55
2019-02-20T00:20:48.471Z,70.85
2019-02-20T00:21:19.806Z,68.65
2019-02-20T00:21:51.119Z,69.30
2019-02-20T00:22:22.409Z,67.62
2019-02-20T00:22:53.702Z,72.92
2019-02-20T00:23:25.068Z,70.80
2019-02-20T00:23:56.359Z,65.40
2019-02-20T00:24:27.692Z,67.32
2019-02-20T00:24:58.982Z,69.58
2019-02-20T00:25:30.254Z,66.42
2019-02-20T00:26:01.551Z,69.53
2019-02-20T00:26:32.825Z,66.85
2019-02-20T00:27:04.133Z,65.25
2019-02-20T00:27:35.410Z,69.05
2019-02-20T00:28:06.707Z,70.83
2019-02-20T00:28:38.044Z,64.72
2019-02-20T00:29:09.362Z,65.35
2019-02-20T00:29:40.739Z,65.00
2019-02-20T00:30:12.037Z,64.05
2019-02-20T00:30:43.331Z,65.83
2019-02-20T00:31:14.626Z,62.53
2019-02-20T00:31:45.991Z,64.05
2019-02-20T00:32:17.276Z,70.65
2019-02-20T00:32:48.629Z,66.45
2019-02-20T00:33:19.960Z,65.85
2019-02-20T00:33:51.257Z,62.43
2019-02-20T00:34:22.579Z,64.30
2019-02-20T00:34:53.858Z,61.10
2019-02-20T00:35:25.146Z,62.40
2019-02-20T00:35:56.431Z,60.38
2019-02-20T00:36:27.748Z,65.95
2019-02-20T00:36:59.049Z,66.92
2019-02-20T00:37:30.350Z,57.98
2019-02-20T00:38:01.708Z,63.20
2019-02-20T00:38:33.010Z,60.43
2019-02-20T00:39:04.281Z,62.88
2019-02-20T00:39:35.572Z,65.08
2019-02-20T00:40:06.910Z,59.60
2019-02-20T00:40:38.260Z,58.60
2019-02-20T00:41:09.570Z,55.15
2019-02-20T00:41:40.875Z,55.38
2019-02-20T00:42:12.158Z,59.73
2019-02-20T00:42:43.509Z,63.40
2019-02-20T00:43:14.857Z,54.90
2019-02-20T00:43:46.153Z,56.35
2019-02-20T00:44:17.445Z,52.80
2019-02-20T00:44:48.730Z,53.10
2019-02-20T00:45:20.081Z,55.95
2019-02-20T00:45:51.365Z,56.58
2019-02-20T00:46:22.681Z,60.00
2019-02-20T00:46:53.954Z,53.42
2019-02-20T00:47:25.233Z,55.43
2019-02-20T00:47:56.570Z,54.75
2019-02-20T00:48:27.889Z,52.33
2019-02-20T00:48:59.233Z,59.10
2019-02-20T00:49:30.559Z,56.00
2019-02-20T00:50:01.912Z,51.08
2019-02-20T00:50:33.263Z,50.85
2019-02-20T00:51:04.568Z,51.37
2019-02-20T00:51:35.872Z,51.08
2019-02-20T00:52:07.185Z,53.73
2019-02-20T00:52:38.568Z,51.60
2019-02-20T00:53:09.838Z,50.33
2019-02-20T00:53:41.150Z,48.95
2019-02-20T00:54:12.443Z,51.90
2019-02-20T00:54:43.755Z,49.60
2019-02-20T00:55:15.052Z,51.18
2019-02-20T00:55:46.406Z,50.43
2019-02-20T00:56:17.704Z,52.90
2019-02-20T00:56:49.004Z,54.65
2019-02-20T00:57:20.314Z,50.88
2019-02-20T00:57:51.616Z,56.02
2019-02-20T00:58:22.915Z,50.28
2019-02-20T00:58:54.202Z,54.58
2019-02-20T00:59:25.538Z,50.75
2019-02-20T00:59:56.840Z,50.63
2019-02-20T01:00:28.172Z,53.17
2019-02-20T01:00:59.482Z,50.50
2019-02-20T01:01:30.798Z,54.48
2019-02-20T01:02:02.108Z,51.28
2019-02-20T01:02:33.410Z,52.30
2019-02-20T01:03:04.710Z,52.80
2019-02-20T01:03:36.075Z,52.78
2019-02-20T01:04:07.387Z,52.23
2019-02-20T01:04:38.683Z,57.33
2019-02-20T01:05:09.995Z,50.05
2019-02-20T01:05:41.303Z,54.50
2019-02-20T01:06:12.594Z,55.92
2019-02-20T01:06:45.335Z,53.80
2019-02-20T01:07:16.719Z,57.55
2019-02-20T01:07:48.023Z,53.68
2019-02-20T01:08:19.311Z,54.20
2019-02-20T01:08:50.614Z,55.55
2019-02-20T01:09:21.911Z,59.88
2019-02-20T01:09:53.258Z,56.88
2019-02-20T01:10:24.592Z,52.60
2019-02-20T01:10:55.948Z,55.40
2019-02-20T01:11:27.268Z,57.30
2019-02-20T01:11:58.615Z,58.08
2019-02-20T01:12:30.180Z,58.70
2019-02-20T01:13:01.488Z,60.98
2019-02-20T01:13:32.880Z,61.30
2019-02-20T01:14:04.263Z,57.85
2019-02-20T01:14:35.614Z,63.75
2019-02-20T01:15:06.925Z,58.45
2019-02-20T01:15:39.296Z,54.80
2019-02-20T01:16:10.657Z,55.52
2019-02-20T01:16:41.944Z,52.98
2019-02-20T01:17:13.223Z,57.55
2019-02-20T01:17:44.518Z,57.27
2019-02-20T01:18:15.834Z,56.25
2019-02-20T01:18:47.109Z,57.62
2019-02-20T01:19:18.450Z,58.83
2019-02-20T01:19:49.728Z,55.17
2019-02-20T01:20:21.039Z,57.38
2019-02-20T01:20:52.408Z,56.75
2019-02-20T01:21:23.695Z,57.83
2019-02-20T01:21:54.984Z,56.90
2019-02-20T01:22:26.277Z,58.30
2019-02-20T01:22:59.821Z,58.38
2019-02-20T01:23:30.594Z,59.58
2019-02-20T01:24:01.901Z,55.70
2019-02-20T01:24:34.165Z,56.42
2019-02-20T01:25:05.376Z,55.70
2019-02-20T01:25:36.580Z,57.20
2019-02-20T01:26:07.850Z,57.33
2019-02-20T01:26:39.073Z,58.78
2019-02-20T01:27:10.272Z,53.90
2019-02-20T01:27:41.506Z,57.98
2019-02-20T01:28:12.739Z,56.33
2019-02-20T01:28:43.955Z,59.50
2019-02-20T01:29:15.194Z,62.88
2019-02-20T01:29:46.450Z,61.63
2019-02-20T01:30:17.665Z,58.90
2019-02-20T01:30:48.882Z,62.88
2019-02-20T01:31:20.130Z,62.10
2019-02-20T01:31:51.328Z,59.67
2019-02-20T01:32:22.538Z,57.35
2019-02-20T01:32:53.807Z,62.08
2019-02-20T01:33:25.035Z,61.60
2019-02-20T01:33:57.217Z,61.08
2019-02-20T01:34:28.433Z,62.80
2019-02-20T01:34:59.652Z,61.00
2019-02-20T01:35:30.861Z,58.95
2019-02-20T01:36:02.095Z,61.08
2019-02-20T01:36:33.313Z,59.98
2019-02-20T01:37:04.505Z,62.58
2019-02-20T01:37:35.779Z,57.53
2019-02-20T01:38:06.990Z,58.48
2019-02-20T01:38:38.192Z,64.00
2019-02-20T01:39:09.419Z,61.20
2019-02-20T01:39:40.700Z,62.38
2019-02-20T01:40:11.940Z,60.00
2019-02-20T01:40:43.158Z,67.97
2019-02-20T01:41:14.560Z,64.00
2019-02-20T01:41:45.732Z,62.10
2019-02-20T01:42:16.942Z,59.53
2019-02-20T01:42:48.164Z,63.40
2019-02-20T01:43:19.369Z,60.73
2019-02-20T01:43:50.751Z,59.15
2019-02-20T01:44:21.957Z,57.90
2019-02-20T01:44:53.218Z,61.73
2019-02-20T01:45:24.416Z,59.60
2019-02-20T01:45:55.655Z,56.95
2019-02-20T01:46:26.903Z,61.13
2019-02-20T01:46:58.077Z,62.98
2019-02-20T01:47:29.284Z,62.70
2019-02-20T01:48:00.505Z,63.30
2019-02-20T01:48:31.722Z,66.65
2019-02-20T01:49:02.923Z,59.42
2019-02-20T01:49:34.133Z,65.47
2019-02-20T01:50:05.379Z,61.40
2019-02-20T01:50:36.587Z,60.35
2019-02-20T01:51:07.780Z,61.95
2019-02-20T01:51:38.995Z,58.92
2019-02-20T01:52:10.206Z,57.35
2019-02-20T01:52:41.436Z,57.98
2019-02-20T01:53:12.644Z,59.15
2019-02-20T01:53:43.906Z,61.18
2019-02-20T01:54:15.166Z,62.43
2019-02-20T01:54:46.377Z,60.90
2019-02-20T01:55:17.615Z,65.65
2019-02-20T01:55:48.833Z,61.75
2019-02-20T01:56:20.033Z,60.67
2019-02-20T01:56:51.246Z,64.37
2019-02-20T01:57:22.464Z,58.63
2019-02-20T01:57:53.711Z,64.95
2019-02-20T01:58:25.015Z,64.82
2019-02-20T01:58:56.305Z,62.80
2019-02-20T01:59:27.515Z,65.15
2019-02-20T01:59:58.726Z,61.13
2019-02-20T02:00:29.938Z,61.90
2019-02-20T02:01:01.150Z,62.88
2019-02-20T02:01:32.362Z,61.95
2019-02-20T02:02:03.656Z,61.53
2019-02-20T02:02:34.953Z,61.02
2019-02-20T02:03:06.201Z,66.57
2019-02-20T02:03:39.086Z,61.23
2019-02-20T02:04:10.419Z,63.68
2019-02-20T02:04:41.680Z,58.85
2019-02-20T02:05:15.809Z,56.35
2019-02-20T02:05:45.919Z,54.27
2019-02-20T02:06:17.124Z,60.55
2019-02-20T02:06:48.337Z,53.45
2019-02-20T02:07:19.578Z,56.63
2019-02-20T02:07:50.787Z,62.80
2019-02-20T02:08:22.005Z,58.45
2019-02-20T02:08:53.213Z,58.10
2019-02-20T02:09:24.428Z,59.90
2019-02-20T02:09:55.739Z,62.58
2019-02-20T02:10:26.970Z,58.10
2019-02-20T02:10:58.188Z,59.13
2019-02-20T02:11:29.405Z,60.60
2019-02-20T02:12:00.637Z,56.02
2019-02-20T02:12:31.852Z,58.98
2019-02-20T02:13:03.069Z,61.53
2019-02-20T02:13:34.320Z,66.37
2019-02-20T02:14:05.575Z,59.65
2019-02-20T02:14:36.771Z,60.48
2019-02-20T02:15:08.035Z,60.80
2019-02-20T02:15:39.243Z,58.13
2019-02-20T02:16:10.470Z,63.55
2019-02-20T02:16:41.694Z,61.15
2019-02-20T02:17:12.947Z,60.78
2019-02-20T02:17:44.192Z,58.58
2019-02-20T02:18:15.408Z,62.35
2019-02-20T02:18:46.636Z,60.03
2019-02-20T02:19:17.834Z,61.90
2019-02-20T02:19:49.046Z,61.28
2019-02-20T02:20:20.308Z,59.75
2019-02-20T02:20:51.579Z,61.63
2019-02-20T02:21:22.784Z,59.53
2019-02-20T02:21:54.007Z,66.28
2019-02-20T02:22:25.230Z,70.83
2019-02-20T02:22:56.449Z,63.00
2019-02-20T02:23:27.651Z,62.33
2019-02-20T02:23:58.893Z,62.65
2019-02-20T02:24:30.134Z,62.48
2019-02-20T02:25:01.344Z,66.40
2019-02-20T02:25:32.548Z,67.80
2019-02-20T02:26:10.622Z,64.47
2019-02-20T02:26:36.735Z,59.27
2019-02-20T02:27:07.976Z,57.75
2019-02-20T02:27:39.222Z,56.85
2019-02-20T02:28:10.451Z,59.98
2019-02-20T02:28:41.666Z,62.90
2019-02-20T02:29:12.859Z,57.17
2019-02-20T02:29:44.082Z,55.70
2019-02-20T02:30:15.301Z,60.28
2019-02-20T02:30:46.560Z,56.75
2019-02-20T02:31:17.802Z,57.13
2019-02-20T02:31:49.009Z,58.83
2019-02-20T02:32:20.223Z,54.18
2019-02-20T02:32:51.487Z,58.15
2019-02-20T02:33:22.690Z,54.88
2019-02-20T02:33:53.930Z,56.15
2019-02-20T02:34:25.188Z,54.93
2019-02-20T02:34:56.380Z,54.48
2019-02-20T02:35:27.602Z,56.15
2019-02-20T02:35:58.894Z,53.60
2019-02-20T02:36:30.093Z,49.42
2019-02-20T02:37:01.304Z,53.08
2019-02-20T02:37:32.508Z,54.05
2019-02-20T02:38:03.711Z,47.20
2019-02-20T02:38:34.929Z,51.63
2019-02-20T02:39:06.152Z,50.65
2019-02-20T02:39:37.364Z,54.42
2019-02-20T02:40:08.653Z,52.88
2019-02-20T02:40:39.865Z,51.28
2019-02-20T02:41:11.121Z,50.15
2019-02-20T02:41:44.699Z,50.30
2019-02-20T02:42:15.295Z,53.05
2019-02-20T02:42:46.504Z,52.10
2019-02-20T02:43:17.715Z,52.38
2019-02-20T02:43:48.964Z,46.77
2019-02-20T02:44:20.201Z,46.42
2019-02-20T02:44:51.467Z,48.92
2019-02-20T02:45:22.742Z,52.40
2019-02-20T02:45:53.947Z,48.15
2019-02-20T02:46:25.150Z,47.65
2019-02-20T02:46:56.369Z,49.98
2019-02-20T02:47:27.599Z,49.45
2019-02-20T02:47:58.834Z,50.50
2019-02-20T02:48:30.026Z,50.75
2019-02-20T02:49:01.261Z,48.98
2019-02-20T02:49:32.464Z,48.08
2019-02-20T02:50:03.685Z,48.98
2019-02-20T02:50:34.882Z,45.17
2019-02-20T02:51:06.158Z,46.75
2019-02-20T02:51:37.375Z,45.98
2019-02-20T02:52:08.583Z,47.25
2019-02-20T02:52:39.795Z,47.88
2019-02-20T02:53:11.065Z,49.10
2019-02-20T02:53:42.280Z,47.50
2019-02-20T02:54:13.479Z,47.50
2019-02-20T02:54:44.698Z,49.38
2019-02-20T02:55:15.985Z,49.80
2019-02-20T02:55:47.202Z,45.38
2019-02-20T02:56:18.411Z,43.83
2019-02-20T02:56:49.624Z,45.85
2019-02-20T02:57:20.889Z,47.13
2019-02-20T02:57:52.103Z,44.98
2019-02-20T02:58:23.363Z,44.73
2019-02-20T02:58:54.573Z,42.25
2019-02-20T02:59:25.787Z,43.73
2019-02-20T02:59:57.002Z,44.23
2019-02-20T03:00:28.207Z,44.30
2019-02-20T03:00:59.461Z,44.08
2019-02-20T03:01:30.684Z,42.90
2019-02-20T03:02:01.897Z,49.48
2019-02-20T03:02:33.094Z,45.95
2019-02-20T03:03:04.314Z,43.15
2019-02-20T03:03:35.584Z,45.52
2019-02-20T03:04:06.817Z,44.20
2019-02-20T03:04:38.053Z,47.88
2019-02-20T03:05:09.243Z,45.17
2019-02-20T03:05:40.458Z,43.87
2019-02-20T03:06:11.661Z,45.20
2019-02-20T03:06:42.879Z,46.85
2019-02-20T03:07:14.086Z,44.55
2019-02-20T03:07:45.326Z,48.55
2019-02-20T03:08:16.540Z,46.15
2019-02-20T03:08:47.744Z,43.92
2019-02-20T03:09:18.966Z,45.08
2019-02-20T03:09:50.246Z,43.50
2019-02-20T03:10:21.438Z,44.53
2019-02-20T03:10:52.648Z,48.68
2019-02-20T03:11:23.921Z,47.45
2019-02-20T03:11:55.173Z,44.77
2019-02-20T03:12:26.405Z,49.38
2019-02-20T03:12:57.663Z,46.20
2019-02-20T03:13:28.868Z,48.85
2019-02-20T03:14:00.125Z,49.88
2019-02-20T03:14:31.839Z,48.95
2019-02-20T03:15:03.067Z,50.67
2019-02-20T03:15:34.316Z,45.70
2019-02-20T03:16:05.521Z,48.25
2019-02-20T03:16:36.735Z,46.35
2019-02-20T03:17:07.958Z,44.42
2019-02-20T03:17:39.154Z,48.40
2019-02-20T03:18:10.429Z,47.50
2019-02-20T03:18:41.628Z,54.15
2019-02-20T03:19:12.852Z,53.78
2019-02-20T03:19:44.076Z,44.70
2019-02-20T03:20:15.386Z,46.25
2019-02-20T03:20:46.626Z,51.18
2019-02-20T03:21:17.971Z,51.80
2019-02-20T03:21:49.274Z,51.18
2019-02-20T03:22:20.483Z,53.63
2019-02-20T03:22:51.781Z,56.20
2019-02-20T03:23:23.031Z,51.02
2019-02-20T03:23:54.232Z,53.23
2019-02-20T03:24:25.496Z,53.30
2019-02-20T03:24:56.686Z,50.78
2019-02-20T03:25:27.900Z,51.92
2019-02-20T03:25:59.180Z,54.77
2019-02-20T03:26:30.518Z,50.98
2019-02-20T03:27:01.778Z,52.95
2019-02-20T03:27:33.012Z,54.00
2019-02-20T03:28:04.233Z,52.65
2019-02-20T03:28:35.435Z,54.27
2019-02-20T03:29:06.681Z,55.65
2019-02-20T03:29:37.897Z,53.15
2019-02-20T03:30:09.118Z,51.02
2019-02-20T03:30:40.422Z,54.30
2019-02-20T03:31:11.631Z,57.83
2019-02-20T03:31:42.828Z,60.05
2019-02-20T03:32:14.148Z,55.65
2019-02-20T03:32:45.450Z,54.53
2019-02-20T03:33:16.649Z,58.28
2019-02-20T03:33:47.866Z,51.88
2019-02-20T03:34:19.108Z,52.08
2019-02-20T03:34:50.297Z,54.15
2019-02-20T03:35:21.519Z,52.98
2019-02-20T03:35:52.709Z,52.40
2019-02-20T03:36:23.918Z,54.03
2019-02-20T03:36:55.130Z,53.70
2019-02-20T03:37:26.349Z,51.92
2019-02-20T03:37:57.615Z,56.95
2019-02-20T03:38:30.527Z,52.65
2019-02-20T03:39:01.774Z,53.85
2019-02-20T03:39:32.971Z,57.45
2019-02-20T03:40:04.257Z,55.03
2019-02-20T03:40:35.498Z,55.95
2019-02-20T03:41:06.773Z,56.18
2019-02-20T03:41:38.032Z,54.13
2019-02-20T03:42:09.251Z,55.35
2019-02-20T03:42:40.460Z,52.90
2019-02-20T03:43:11.664Z,54.10
2019-02-20T03:43:42.916Z,54.33
2019-02-20T03:44:14.167Z,52.55
2019-02-20T03:44:45.381Z,54.35
2019-02-20T03:45:16.591Z,55.17
2019-02-20T03:45:47.834Z,56.05
2019-02-20T03:46:19.050Z,54.05
2019-02-20T03:46:50.287Z,52.00
2019-02-20T03:47:21.496Z,53.28
2019-02-20T03:47:52.700Z,56.45
2019-02-20T03:48:23.897Z,49.80
2019-02-20T03:48:55.105Z,59.05
2019-02-20T03:49:26.356Z,53.15
2019-02-20T03:49:57.557Z,54.90
2019-02-20T03:50:28.810Z,55.43
2019-02-20T03:51:00.175Z,54.42
2019-02-20T03:51:31.392Z,53.35
2019-02-20T03:52:02.607Z,57.13
2019-02-20T03:52:36.598Z,52.30
2019-02-20T03:53:07.823Z,54.18
2019-02-20T03:53:39.035Z,53.92
2019-02-20T03:54:10.295Z,51.60
2019-02-20T03:54:41.524Z,56.60
2019-02-20T03:55:12.738Z,53.98
2019-02-20T03:55:43.946Z,50.40
2019-02-20T03:56:15.164Z,50.67
2019-02-20T03:56:46.368Z,53.98
2019-02-20T03:57:17.649Z,52.08
2019-02-20T03:57:48.860Z,57.03
2019-02-20T03:58:20.073Z,54.93
2019-02-20T03:58:51.276Z,51.37
2019-02-20T03:59:22.529Z,51.58
2019-02-20T03:59:53.781Z,54.40
2019-02-20T04:00:24.993Z,51.92
2019-02-20T04:00:56.220Z,51.90
2019-02-20T04:01:27.435Z,51.33
2019-02-20T04:01:58.626Z,52.50
2019-02-20T04:02:29.931Z,50.67
2019-02-20T04:03:01.153Z,48.98
2019-02-20T04:03:32.361Z,50.95
2019-02-20T04:04:03.590Z,49.90
2019-02-20T04:04:34.833Z,53.38
2019-02-20T04:05:06.077Z,52.78
2019-02-20T04:05:37.310Z,52.30
2019-02-20T04:06:08.526Z,51.88
2019-02-20T04:06:39.813Z,49.40
2019-02-20T04:07:11.018Z,50.28
2019-02-20T04:07:42.237Z,51.35
2019-02-20T04:08:13.435Z,49.83
2019-02-20T04:08:44.683Z,54.85
2019-02-20T04:09:15.866Z,51.20
2019-02-20T04:09:47.079Z,48.75
2019-02-20T04:10:18.294Z,48.70
2019-02-20T04:10:49.494Z,54.20
2019-02-20T04:11:20.769Z,50.00
2019-02-20T04:11:52.053Z,48.13
2019-02-20T04:12:23.268Z,51.60
2019-02-20T04:12:54.494Z,50.15
2019-02-20T04:13:25.695Z,48.05
2019-02-20T04:13:57.222Z,44.73
2019-02-20T04:14:28.434Z,46.88
2019-02-20T04:15:00.654Z,46.55
2019-02-20T04:15:31.871Z,52.27
2019-02-20T04:16:03.082Z,46.53
2019-02-20T04:16:34.307Z,47.62
2019-02-20T04:17:05.544Z,51.33
2019-02-20T04:17:36.756Z,50.73
2019-02-20T04:18:07.976Z,45.90
2019-02-20T04:18:39.193Z,48.95
2019-02-20T04:19:10.399Z,48.45
2019-02-20T04:19:41.793Z,48.68
2019-02-20T04:20:13.000Z,48.63
2019-02-20T04:20:44.288Z,49.53
2019-02-20T04:21:15.501Z,52.15
2019-02-20T04:21:46.716Z,50.95
2019-02-20T04:22:17.929Z,55.05
2019-02-20T04:22:49.141Z,52.50
2019-02-20T04:23:20.350Z,52.50
2019-02-20T04:24:01.610Z,54.67
2019-02-20T04:24:24.489Z,55.35
2019-02-20T04:24:55.731Z,57.25
2019-02-20T04:25:26.961Z,51.70
2019-02-20T04:25:58.193Z,51.33
2019-02-20T04:26:29.394Z,53.33
2019-02-20T04:27:00.603Z,53.28
2019-02-20T04:27:31.813Z,53.50
2019-02-20T04:28:03.019Z,52.00
2019-02-20T04:28:34.258Z,54.95
2019-02-20T04:29:05.469Z,52.58
2019-02-20T04:29:36.670Z,51.53
2019-02-20T04:30:07.888Z,51.05
2019-02-20T04:30:39.106Z,52.80
2019-02-20T04:31:10.317Z,51.70
2019-02-20T04:31:41.565Z,54.77
2019-02-20T04:32:12.771Z,54.55
2019-02-20T04:32:43.970Z,51.13
2019-02-20T04:33:15.249Z,53.02
2019-02-20T04:33:46.480Z,54.05
2019-02-20T04:34:17.699Z,50.35
2019-02-20T04:34:48.893Z,54.95
2019-02-20T04:35:20.095Z,51.13
2019-02-20T04:35:51.307Z,54.13
2019-02-20T04:36:22.520Z,45.80
2019-02-20T04:36:53.724Z,46.95
2019-02-20T04:37:24.933Z,51.83
2019-02-20T04:37:56.129Z,51.85
2019-02-20T04:38:27.409Z,52.60
2019-02-20T04:38:59.810Z,47.00
2019-02-20T04:39:31.037Z,47.08
2019-02-20T04:40:02.228Z,49.55
2019-02-20T04:40:33.465Z,46.85
2019-02-20T04:41:04.670Z,49.95
2019-02-20T04:41:35.884Z,48.73
2019-02-20T04:42:07.135Z,47.85
2019-02-20T04:42:38.420Z,50.70
2019-02-20T04:43:09.677Z,49.03
2019-02-20T04:43:40.969Z,50.05
2019-02-20T04:44:12.172Z,44.55
2019-02-20T04:44:43.386Z,46.83
2019-02-20T04:45:14.593Z,44.27
2019-02-20T04:45:45.854Z,47.20
2019-02-20T04:46:17.116Z,50.58
2019-02-20T04:46:48.328Z,50.45
2019-02-20T04:47:19.537Z,47.40
2019-02-20T04:47:50.755Z,49.18
2019-02-20T04:48:21.979Z,47.65
2019-02-20T04:48:53.280Z,48.05
2019-02-20T04:49:24.488Z,45.55
2019-02-20T04:49:55.678Z,45.52
2019-02-20T04:50:26.915Z,45.78
2019-02-20T04:50:58.154Z,46.68
2019-02-20T04:51:29.385Z,43.87
2019-02-20T04:52:00.597Z,41.33
2019-02-20T04:52:31.816Z,47.65
2019-02-20T04:53:03.027Z,43.92
2019-02-20T04:53:34.235Z,42.40
2019-02-20T04:54:13.013Z,42.58
2019-02-20T04:54:38.448Z,43.30
2019-02-20T04:55:09.682Z,41.58
2019-02-20T04:55:40.920Z,45.88
2019-02-20T04:56:12.131Z,43.13
2019-02-20T04:56:43.374Z,42.67
2019-02-20T04:57:14.636Z,43.68
2019-02-20T04:57:45.830Z,39.90
2019-02-20T04:58:17.034Z,43.20
2019-02-20T04:58:48.238Z,42.83
2019-02-20T04:59:19.494Z,41.40
2019-02-20T04:59:50.795Z,42.27
2019-02-20T05:00:21.994Z,46.63
2019-02-20T05:00:53.233Z,41.53
2019-02-20T05:01:24.482Z,42.35
2019-02-20T05:01:55.695Z,44.77
2019-02-20T05:02:26.928Z,41.37
2019-02-20T05:02:58.166Z,42.35
2019-02-20T05:03:29.382Z,43.35
2019-02-20T05:04:00.587Z,40.12
2019-02-20T05:04:31.798Z,46.45
2019-02-20T05:05:03.033Z,43.83
2019-02-20T05:05:34.222Z,43.35
2019-02-20T05:06:05.474Z,44.08
2019-02-20T05:06:36.701Z,42.10
2019-02-20T05:07:07.948Z,45.00
2019-02-20T05:07:39.176Z,44.45
2019-02-20T05:08:10.445Z,41.92
2019-02-20T05:08:42.088Z,45.60
2019-02-20T05:09:13.299Z,42.27
2019-02-20T05:09:44.517Z,42.90
2019-02-20T05:10:15.750Z,40.98
2019-02-20T05:10:47.006Z,42.75
2019-02-20T05:11:18.271Z,47.15
2019-02-20T05:11:49.480Z,44.13
2019-02-20T05:12:20.706Z,43.83
2019-02-20T05:12:51.942Z,39.42
2019-02-20T05:13:23.140Z,42.10
2019-02-20T05:13:54.426Z,46.25
2019-02-20T05:14:25.634Z,43.80
2019-02-20T05:14:56.831Z,45.28
2019-02-20T05:15:28.040Z,44.35
2019-02-20T05:15:59.263Z,44.75
2019-02-20T05:16:33.230Z,46.73
2019-02-20T05:17:04.438Z,47.45
2019-02-20T05:17:35.657Z,47.10
2019-02-20T05:18:06.914Z,46.08
2019-02-20T05:18:38.135Z,44.40
2019-02-20T05:19:09.387Z,41.65
2019-02-20T05:19:40.611Z,42.27
2019-02-20T05:20:11.857Z,44.00
2019-02-20T05:20:43.059Z,44.65
2019-02-20T05:21:14.265Z,50.65
2019-02-20T05:21:45.476Z,45.78
2019-02-20T05:22:16.689Z,49.90
2019-02-20T05:22:47.975Z,48.17
2019-02-20T05:23:19.186Z,49.98
2019-02-20T05:23:50.386Z,43.68
2019-02-20T05:24:24.770Z,44.73
2019-02-20T05:24:54.542Z,49.35
2019-02-20T05:25:25.753Z,46.77
2019-02-20T05:25:56.963Z,47.38
2019-02-20T05:26:28.172Z,49.08
2019-02-20T05:26:59.440Z,50.88
2019-02-20T05:27:30.640Z,48.05
2019-02-20T05:28:01.849Z,44.15
2019-02-20T05:28:33.049Z,46.15
2019-02-20T05:29:04.265Z,45.33
2019-02-20T05:29:35.468Z,47.05
2019-02-20T05:30:06.693Z,49.48
2019-02-20T05:30:37.891Z,47.55
2019-02-20T05:31:09.109Z,45.67
2019-02-20T05:31:40.312Z,46.00
2019-02-20T05:32:11.581Z,49.73
2019-02-20T05:32:42.784Z,46.77
2019-02-20T05:33:13.994Z,46.37
2019-02-20T05:33:45.208Z,49.90
2019-02-20T05:34:16.437Z,49.13
2019-02-20T05:34:47.635Z,47.25
2019-02-20T05:35:18.855Z,49.30
2019-02-20T05:35:50.054Z,49.55
2019-02-20T05:36:21.288Z,51.68
2019-02-20T05:36:52.511Z,49.80
2019-02-20T05:37:23.771Z,49.05
2019-02-20T05:37:54.986Z,50.50
2019-02-20T05:38:26.192Z,49.85
2019-02-20T05:38:57.405Z,48.42
2019-02-20T05:39:28.611Z,53.23
2019-02-20T05:39:59.823Z,51.83
2019-02-20T05:40:31.035Z,49.35
2019-02-20T05:41:02.303Z,53.13
2019-02-20T05:41:33.600Z,53.65
2019-02-20T05:42:04.857Z,53.60
2019-02-20T05:42:36.068Z,51.23
2019-02-20T05:43:07.316Z,52.08
2019-02-20T05:43:38.566Z,50.23
2019-02-20T05:44:09.773Z,51.08
2019-02-20T05:44:40.985Z,50.03
2019-02-20T05:45:12.198Z,49.83
2019-02-20T05:45:43.455Z,50.98
2019-02-20T05:46:14.685Z,55.38
2019-02-20T05:46:45.882Z,56.53
2019-02-20T05:47:17.188Z,53.35
2019-02-20T05:47:48.438Z,56.53
2019-02-20T05:48:19.670Z,54.98
2019-02-20T05:48:50.892Z,53.83
2019-02-20T05:49:22.125Z,55.78
2019-02-20T05:49:53.393Z,51.80
2019-02-20T05:50:24.655Z,52.10
2019-02-20T05:50:55.887Z,53.25
2019-02-20T05:51:27.093Z,51.75
2019-02-20T05:51:58.356Z,51.65
2019-02-20T05:52:29.582Z,51.73
2019-02-20T05:53:00.778Z,51.73
2019-02-20T05:53:32.038Z,54.40
2019-02-20T05:54:03.316Z,52.62
2019-02-20T05:54:35.290Z,51.88
2019-02-20T05:55:06.602Z,50.10
2019-02-20T05:55:37.817Z,57.23
2019-02-20T05:56:09.034Z,53.08
2019-02-20T05:56:40.296Z,52.00
2019-02-20T05:57:11.503Z,54.80
2019-02-20T05:57:42.721Z,50.45
2019-02-20T05:58:13.948Z,50.95
2019-02-20T05:58:45.189Z,48.58
2019-02-20T05:59:16.398Z,49.33
2019-02-20T05:59:49.620Z,51.68
2019-02-20T06:00:20.970Z,46.63
2019-02-20T06:00:52.187Z,48.50
2019-02-20T06:01:23.391Z,43.70
2019-02-20T06:01:54.600Z,48.13
2019-02-20T06:02:25.839Z,47.23
2019-02-20T06:02:57.193Z,45.45
2019-02-20T06:03:28.408Z,46.13
2019-02-20T06:03:59.619Z,54.85
2019-02-20T06:04:30.863Z,45.70
2019-02-20T06:05:02.116Z,48.90
2019-02-20T06:05:33.358Z,48.85
2019-02-20T06:06:04.578Z,45.90
2019-02-20T06:06:35.793Z,41.48
2019-02-20T06:07:07.058Z,46.95
2019-02-20T06:07:38.268Z,45.38
2019-02-20T06:08:09.477Z,47.58
2019-02-20T06:08:40.690Z,46.02
2019-02-20T06:09:11.911Z,46.37
2019-02-20T06:09:43.117Z,46.58
2019-02-20T06:10:14.368Z,46.85
2019-02-20T06:10:45.578Z,44.33
2019-02-20T06:11:16.788Z,42.48
2019-02-20T06:11:48.012Z,46.18
2019-02-20T06:12:19.250Z,45.85
2019-02-20T06:12:50.469Z,45.28
2019-02-20T06:13:21.838Z,45.60
2019-02-20T06:13:53.080Z,40.92
2019-02-20T06:14:24.275Z,45.28
2019-02-20T06:14:55.541Z,43.25
2019-02-20T06:15:26.762Z,44.13
2019-02-20T06:15:57.986Z,45.78
2019-02-20T06:16:29.207Z,39.90
2019-02-20T06:17:00.418Z,40.08
2019-02-20T06:17:31.627Z,41.42
2019-02-20T06:18:02.833Z,42.50
2019-02-20T06:18:34.109Z,39.73
2019-02-20T06:19:05.347Z,39.53
2019-02-20T06:19:36.559Z,41.73
2019-02-20T06:20:07.780Z,44.45
2019-02-20T06:20:39.010Z,39.75
2019-02-20T06:21:10.213Z,38.90
2019-02-20T06:21:41.431Z,39.92
2019-02-20T06:22:12.659Z,41.40
2019-02-20T06:22:43.886Z,40.40
2019-02-20T06:23:15.145Z,40.12
2019-02-20T06:23:46.338Z,45.12
2019-02-20T06:24:17.553Z,42.58
2019-02-20T06:24:48.767Z,38.88
2019-02-20T06:25:20.101Z,39.45
2019-02-20T06:25:51.393Z,39.83
2019-02-20T06:26:22.607Z,38.95
2019-02-20T06:26:53.812Z,38.60
2019-02-20T06:27:25.025Z,40.88
2019-02-20T06:27:56.292Z,42.67
2019-02-20T06:28:27.559Z,42.65
2019-02-20T06:28:58.760Z,39.60
2019-02-20T06:29:29.976Z,38.73
2019-02-20T06:30:01.324Z,42.10
2019-02-20T06:30:32.499Z,40.65
2019-02-20T06:31:03.741Z,36.98
2019-02-20T06:31:34.955Z,39.30
2019-02-20T06:32:06.162Z,39.03
2019-02-20T06:32:37.438Z,40.10
2019-02-20T06:33:08.639Z,43.30
2019-02-20T06:33:39.858Z,41.40
2019-02-20T06:34:11.060Z,40.73
2019-02-20T06:34:44.357Z,43.20
2019-02-20T06:35:15.635Z,37.73
2019-02-20T06:35:46.844Z,44.58
2019-02-20T06:36:18.488Z,41.05
2019-02-20T06:36:49.745Z,39.30
2019-02-20T06:37:21.001Z,40.88
2019-02-20T06:37:52.226Z,37.85
2019-02-20T06:38:23.448Z,38.60
2019-02-20T06:38:54.664Z,39.67
2019-02-20T06:39:25.912Z,43.50
2019-02-20T06:39:57.124Z,38.65
2019-02-20T06:40:28.399Z,37.80
2019-02-20T06:40:59.627Z,41.35
2019-02-20T06:41:38.656Z,42.85
2019-02-20T06:42:04.082Z,43.25
2019-02-20T06:42:35.294Z,44.25
2019-02-20T06:43:06.538Z,40.63